sensor_id;sensor_type;location;lat;lon;timestamp;pressure;altitude;pressure_sealevel;temperature;humidity
79362;BME280;68830;47.566;19.012;2023-04-25T00:00:06;98856.34;;;13.01;67.65
79362;BME280;68830;47.566;19.012;2023-04-25T00:03:09;98827.03;;;12.88;67.65
79362;BME280;68830;47.566;19.012;2023-04-25T00:06:12;98830.94;;;12.92;67.46
79362;BME280;68830;47.566;19.012;2023-04-25T00:09:16;98865.84;;;13.10;68.58
79362;BME280;68830;47.566;19.012;2023-04-25T00:12:18;98892.00;;;13.28;67.64
79362;BME280;68830;47.566;19.012;2023-04-25T00:15:20;98831.38;;;12.96;68.31
79362;BME280;68830;47.566;19.012;2023-04-25T00:18:22;98825.22;;;12.95;67.99
79362;BME280;68830;47.566;19.012;2023-04-25T00:21:24;98825.38;;;12.87;67.84
79362;BME280;68830;47.566;19.012;2023-04-25T00:24:28;98838.25;;;13.11;67.47
79362;BME280;68830;47.566;19.012;2023-04-25T00:27:30;98873.78;;;13.25;67.93
79362;BME280;68830;47.566;19.012;2023-04-25T00:30:32;98851.72;;;13.10;68.39
79362;BME280;68830;47.566;19.012;2023-04-25T00:33:34;98833.28;;;13.02;67.98
79362;BME280;68830;47.566;19.012;2023-04-25T00:36:36;98861.50;;;13.24;68.03
79362;BME280;68830;47.566;19.012;2023-04-25T00:39:39;98818.91;;;12.96;68.12
79362;BME280;68830;47.566;19.012;2023-04-25T00:42:41;98812.34;;;12.92;68.49
79362;BME280;68830;47.566;19.012;2023-04-25T00:45:47;98824.84;;;12.98;68.34
79362;BME280;68830;47.566;19.012;2023-04-25T00:48:49;98850.78;;;13.18;67.78
79362;BME280;68830;47.566;19.012;2023-04-25T00:51:51;98807.59;;;12.88;69.55
79362;BME280;68830;47.566;19.012;2023-04-25T00:54:54;98782.34;;;12.77;68.36
79362;BME280;68830;47.566;19.012;2023-04-25T00:57:56;98783.19;;;12.77;67.74
79362;BME280;68830;47.566;19.012;2023-04-25T01:00:58;98796.81;;;12.96;67.57
79362;BME280;68830;47.566;19.012;2023-04-25T01:04:02;98798.84;;;12.94;68.04
79362;BME280;68830;47.566;19.012;2023-04-25T01:07:04;98791.16;;;12.77;68.15
79362;BME280;68830;47.566;19.012;2023-04-25T01:10:08;98798.41;;;12.90;68.48
79362;BME280;68830;47.566;19.012;2023-04-25T01:13:10;98826.78;;;13.11;68.12
79362;BME280;68830;47.566;19.012;2023-04-25T01:16:12;98820.22;;;13.07;68.74
79362;BME280;68830;47.566;19.012;2023-04-25T01:19:17;98828.81;;;13.09;68.46
79362;BME280;68830;47.566;19.012;2023-04-25T01:22:21;98829.63;;;13.09;67.97
79362;BME280;68830;47.566;19.012;2023-04-25T01:25:23;98821.44;;;13.04;67.92
79362;BME280;68830;47.566;19.012;2023-04-25T01:28:25;98808.50;;;13.01;67.77
79362;BME280;68830;47.566;19.012;2023-04-25T01:31:27;98812.25;;;13.07;67.53
79362;BME280;68830;47.566;19.012;2023-04-25T01:34:29;98829.25;;;13.12;68.56
79362;BME280;68830;47.566;19.012;2023-04-25T01:37:33;98813.00;;;13.01;67.62
79362;BME280;68830;47.566;19.012;2023-04-25T01:40:39;98809.91;;;12.97;68.20
79362;BME280;68830;47.566;19.012;2023-04-25T01:43:42;98819.78;;;13.03;68.05
79362;BME280;68830;47.566;19.012;2023-04-25T01:46:44;98753.84;;;12.64;68.08
79362;BME280;68830;47.566;19.012;2023-04-25T01:49:46;98786.66;;;12.78;68.46
79362;BME280;68830;47.566;19.012;2023-04-25T01:52:50;98775.84;;;12.79;68.20
79362;BME280;68830;47.566;19.012;2023-04-25T01:55:52;98761.03;;;12.70;67.73
79362;BME280;68830;47.566;19.012;2023-04-25T01:58:54;98743.81;;;12.60;67.52
79362;BME280;68830;47.566;19.012;2023-04-25T02:01:56;98766.19;;;12.72;66.69
79362;BME280;68830;47.566;19.012;2023-04-25T02:04:58;98782.34;;;12.77;67.38
79362;BME280;68830;47.566;19.012;2023-04-25T02:08:01;98817.94;;;13.04;67.51
79362;BME280;68830;47.566;19.012;2023-04-25T02:11:06;98786.84;;;12.76;67.07
79362;BME280;68830;47.566;19.012;2023-04-25T02:14:08;98763.41;;;12.59;66.67
79362;BME280;68830;47.566;19.012;2023-04-25T02:17:10;98751.13;;;12.57;66.75
79362;BME280;68830;47.566;19.012;2023-04-25T02:20:14;98789.91;;;12.73;67.14
79362;BME280;68830;47.566;19.012;2023-04-25T02:23:19;98788.69;;;12.76;66.42
79362;BME280;68830;47.566;19.012;2023-04-25T02:26:21;98811.69;;;12.90;66.51
79362;BME280;68830;47.566;19.012;2023-04-25T02:29:23;98822.97;;;12.92;66.14
79362;BME280;68830;47.566;19.012;2023-04-25T02:32:25;98825.41;;;12.94;66.01
79362;BME280;68830;47.566;19.012;2023-04-25T02:35:27;98786.97;;;12.68;65.85
79362;BME280;68830;47.566;19.012;2023-04-25T02:38:30;98781.16;;;12.79;65.52
79362;BME280;68830;47.566;19.012;2023-04-25T02:41:32;98766.06;;;12.59;65.27
79362;BME280;68830;47.566;19.012;2023-04-25T02:44:34;98776.53;;;12.67;65.15
79362;BME280;68830;47.566;19.012;2023-04-25T02:47:36;98785.59;;;12.72;65.37
79362;BME280;68830;47.566;19.012;2023-04-25T02:50:38;98767.31;;;12.63;66.10
79362;BME280;68830;47.566;19.012;2023-04-25T02:53:41;98788.25;;;12.72;65.99
79362;BME280;68830;47.566;19.012;2023-04-25T02:56:43;98761.69;;;12.51;65.12
79362;BME280;68830;47.566;19.012;2023-04-25T02:59:45;98758.84;;;12.52;65.38
79362;BME280;68830;47.566;19.012;2023-04-25T03:02:47;98817.75;;;12.84;65.21
79362;BME280;68830;47.566;19.012;2023-04-25T03:05:49;98759.22;;;12.49;65.84
79362;BME280;68830;47.566;19.012;2023-04-25T03:08:53;98779.44;;;12.50;65.52
79362;BME280;68830;47.566;19.012;2023-04-25T03:11:55;98800.00;;;12.63;66.01
79362;BME280;68830;47.566;19.012;2023-04-25T03:14:57;98796.28;;;12.57;65.77
79362;BME280;68830;47.566;19.012;2023-04-25T03:17:59;98766.03;;;12.37;66.47
79362;BME280;68830;47.566;19.012;2023-04-25T03:21:01;98758.41;;;12.27;66.00
79362;BME280;68830;47.566;19.012;2023-04-25T03:24:05;98741.97;;;12.17;65.51
79362;BME280;68830;47.566;19.012;2023-04-25T03:27:07;98788.38;;;12.43;66.44
79362;BME280;68830;47.566;19.012;2023-04-25T03:30:09;98800.06;;;12.48;66.22
79362;BME280;68830;47.566;19.012;2023-04-25T03:33:11;98749.19;;;12.09;65.96
79362;BME280;68830;47.566;19.012;2023-04-25T03:36:13;98751.31;;;12.13;67.08
79362;BME280;68830;47.566;19.012;2023-04-25T03:39:17;98756.53;;;12.07;66.01
79362;BME280;68830;47.566;19.012;2023-04-25T03:42:19;98746.69;;;12.01;66.21
79362;BME280;68830;47.566;19.012;2023-04-25T03:45:21;98747.31;;;12.03;65.97
79362;BME280;68830;47.566;19.012;2023-04-25T03:48:23;98749.97;;;12.03;67.42
79362;BME280;68830;47.566;19.012;2023-04-25T03:51:27;98776.13;;;12.06;67.01
79362;BME280;68830;47.566;19.012;2023-04-25T03:54:30;98769.84;;;11.92;67.47
79362;BME280;68830;47.566;19.012;2023-04-25T03:57:32;98774.22;;;12.00;67.38
79362;BME280;68830;47.566;19.012;2023-04-25T04:00:35;98784.09;;;12.06;66.85
79362;BME280;68830;47.566;19.012;2023-04-25T04:03:37;98818.09;;;12.17;67.96
79362;BME280;68830;47.566;19.012;2023-04-25T04:06:40;98749.81;;;11.75;68.70
79362;BME280;68830;47.566;19.012;2023-04-25T04:09:43;98804.50;;;12.05;67.88
79362;BME280;68830;47.566;19.012;2023-04-25T04:12:45;98823.06;;;12.05;68.96
79362;BME280;68830;47.566;19.012;2023-04-25T04:15:50;98826.91;;;12.03;69.11
79362;BME280;68830;47.566;19.012;2023-04-25T04:18:52;98798.84;;;11.79;68.98
79362;BME280;68830;47.566;19.012;2023-04-25T04:21:54;98801.50;;;11.79;69.00
79362;BME280;68830;47.566;19.012;2023-04-25T04:24:58;98787.13;;;11.73;68.88
79362;BME280;68830;47.566;19.012;2023-04-25T04:28:00;98836.78;;;11.94;68.88
79362;BME280;68830;47.566;19.012;2023-04-25T04:31:02;98809.47;;;11.79;68.84
79362;BME280;68830;47.566;19.012;2023-04-25T04:34:05;98849.78;;;11.89;68.81
79362;BME280;68830;47.566;19.012;2023-04-25T04:37:07;98771.69;;;11.47;68.82
79362;BME280;68830;47.566;19.012;2023-04-25T04:40:11;98823.88;;;11.76;69.02
79362;BME280;68830;47.566;19.012;2023-04-25T04:43:13;98787.88;;;11.52;69.19
79362;BME280;68830;47.566;19.012;2023-04-25T04:46:16;98805.13;;;11.63;69.93
79362;BME280;68830;47.566;19.012;2023-04-25T04:49:20;98795.09;;;11.44;70.56
79362;BME280;68830;47.566;19.012;2023-04-25T04:52:22;98783.75;;;11.35;70.53
79362;BME280;68830;47.566;19.012;2023-04-25T04:55:26;98799.84;;;11.33;71.49
79362;BME280;68830;47.566;19.012;2023-04-25T04:58:28;98789.50;;;11.24;71.94
79362;BME280;68830;47.566;19.012;2023-04-25T05:01:31;98822.41;;;11.44;72.46
79362;BME280;68830;47.566;19.012;2023-04-25T05:04:33;98836.50;;;11.45;71.81
79362;BME280;68830;47.566;19.012;2023-04-25T05:07:35;98797.81;;;11.21;72.78
79362;BME280;68830;47.566;19.012;2023-04-25T05:10:39;98800.56;;;11.27;71.29
79362;BME280;68830;47.566;19.012;2023-04-25T05:13:41;98808.31;;;11.29;72.20
79362;BME280;68830;47.566;19.012;2023-04-25T05:16:43;98822.41;;;11.29;73.09
79362;BME280;68830;47.566;19.012;2023-04-25T05:19:45;98812.09;;;11.20;72.53
79362;BME280;68830;47.566;19.012;2023-04-25T05:22:47;98856.69;;;11.46;72.45
79362;BME280;68830;47.566;19.012;2023-04-25T05:25:50;98793.69;;;11.03;72.11
79362;BME280;68830;47.566;19.012;2023-04-25T05:28:52;98778.13;;;11.00;72.57
79362;BME280;68830;47.566;19.012;2023-04-25T05:31:54;98786.44;;;10.97;73.01
79362;BME280;68830;47.566;19.012;2023-04-25T05:34:56;98790.81;;;10.90;73.14
79362;BME280;68830;47.566;19.012;2023-04-25T05:37:58;98802.78;;;11.01;74.95
79362;BME280;68830;47.566;19.012;2023-04-25T05:41:02;98856.13;;;11.21;75.00
79362;BME280;68830;47.566;19.012;2023-04-25T05:44:04;98787.50;;;10.73;75.30
79362;BME280;68830;47.566;19.012;2023-04-25T05:47:07;98789.97;;;10.75;75.88
79362;BME280;68830;47.566;19.012;2023-04-25T05:50:09;98850.88;;;11.13;75.79
79362;BME280;68830;47.566;19.012;2023-04-25T05:53:11;98848.59;;;11.10;76.25
79362;BME280;68830;47.566;19.012;2023-04-25T05:56:14;98863.22;;;11.05;76.88
79362;BME280;68830;47.566;19.012;2023-04-25T05:59:16;98865.84;;;11.05;76.76
79362;BME280;68830;47.566;19.012;2023-04-25T06:02:18;98790.94;;;9.58;81.96
79362;BME280;68830;47.566;19.012;2023-04-25T06:05:20;98799.81;;;8.85;86.23
79362;BME280;68830;47.566;19.012;2023-04-25T06:08:22;98796.03;;;8.72;86.66
79362;BME280;68830;47.566;19.012;2023-04-25T06:11:25;98781.03;;;8.80;86.23
79362;BME280;68830;47.566;19.012;2023-04-25T06:14:27;98808.41;;;8.79;88.00
79362;BME280;68830;47.566;19.012;2023-04-25T06:17:30;98793.56;;;8.70;86.85
79362;BME280;68830;47.566;19.012;2023-04-25T06:20:32;98798.53;;;8.89;87.83
79362;BME280;68830;47.566;19.012;2023-04-25T06:23:34;98799.00;;;8.85;87.61
79362;BME280;68830;47.566;19.012;2023-04-25T06:26:37;98818.16;;;8.95;87.68
79362;BME280;68830;47.566;19.012;2023-04-25T06:29:39;98816.31;;;8.95;87.11
79362;BME280;68830;47.566;19.012;2023-04-25T06:32:41;98873.56;;;9.52;85.84
79362;BME280;68830;47.566;19.012;2023-04-25T06:35:43;98860.13;;;10.09;83.55
79362;BME280;68830;47.566;19.012;2023-04-25T06:38:45;98870.25;;;10.44;81.44
79362;BME280;68830;47.566;19.012;2023-04-25T06:41:48;98876.28;;;10.84;79.22
79362;BME280;68830;47.566;19.012;2023-04-25T06:44:51;98856.22;;;10.90;78.26
79362;BME280;68830;47.566;19.012;2023-04-25T06:47:53;98846.09;;;10.93;77.46
79362;BME280;68830;47.566;19.012;2023-04-25T06:50:55;98842.06;;;10.97;77.65
79362;BME280;68830;47.566;19.012;2023-04-25T06:53:59;98812.19;;;10.89;76.73
79362;BME280;68830;47.566;19.012;2023-04-25T06:57:02;98834.25;;;11.04;77.22
79362;BME280;68830;47.566;19.012;2023-04-25T07:00:06;98857.59;;;11.23;77.57
79362;BME280;68830;47.566;19.012;2023-04-25T07:03:10;98859.69;;;10.36;81.55
79362;BME280;68830;47.566;19.012;2023-04-25T07:06:12;98818.50;;;9.64;83.88
79362;BME280;68830;47.566;19.012;2023-04-25T07:09:14;98784.53;;;9.44;84.79
79362;BME280;68830;47.566;19.012;2023-04-25T07:12:18;98852.41;;;9.99;83.86
79362;BME280;68830;47.566;19.012;2023-04-25T07:15:20;98858.66;;;10.06;83.50
79362;BME280;68830;47.566;19.012;2023-04-25T07:18:22;98862.59;;;10.10;83.62
79362;BME280;68830;47.566;19.012;2023-04-25T07:21:24;98803.44;;;9.72;82.71
79362;BME280;68830;47.566;19.012;2023-04-25T07:24:26;98810.34;;;9.81;83.25
79362;BME280;68830;47.566;19.012;2023-04-25T07:27:29;98807.63;;;9.98;83.98
79362;BME280;68830;47.566;19.012;2023-04-25T07:30:31;98818.75;;;10.24;82.65
79362;BME280;68830;47.566;19.012;2023-04-25T07:33:33;98833.59;;;10.33;82.99
79362;BME280;68830;47.566;19.012;2023-04-25T07:36:35;98832.78;;;10.33;81.38
79362;BME280;68830;47.566;19.012;2023-04-25T07:39:37;98812.03;;;10.44;82.20
79362;BME280;68830;47.566;19.012;2023-04-25T07:42:41;98796.53;;;10.33;80.97
79362;BME280;68830;47.566;19.012;2023-04-25T07:45:43;98790.28;;;10.57;80.49
79362;BME280;68830;47.566;19.012;2023-04-25T07:48:45;98809.56;;;10.66;79.98
79362;BME280;68830;47.566;19.012;2023-04-25T07:51:47;98813.66;;;10.91;79.57
79362;BME280;68830;47.566;19.012;2023-04-25T07:54:49;98885.03;;;11.45;79.09
79362;BME280;68830;47.566;19.012;2023-04-25T07:57:52;98838.59;;;11.20;78.70
79362;BME280;68830;47.566;19.012;2023-04-25T08:00:54;98838.03;;;11.24;77.54
79362;BME280;68830;47.566;19.012;2023-04-25T08:03:56;98842.00;;;11.58;78.14
79362;BME280;68830;47.566;19.012;2023-04-25T08:06:58;98840.44;;;11.78;76.96
79362;BME280;68830;47.566;19.012;2023-04-25T08:10:00;98804.50;;;11.76;75.81
79362;BME280;68830;47.566;19.012;2023-04-25T08:13:04;98844.22;;;11.84;75.04
79362;BME280;68830;47.566;19.012;2023-04-25T08:16:06;98833.97;;;11.95;75.77
79362;BME280;68830;47.566;19.012;2023-04-25T08:19:08;98822.16;;;11.68;75.48
79362;BME280;68830;47.566;19.012;2023-04-25T08:22:10;98816.56;;;11.63;73.92
79362;BME280;68830;47.566;19.012;2023-04-25T08:25:12;98809.34;;;11.72;72.95
79362;BME280;68830;47.566;19.012;2023-04-25T08:28:15;98851.59;;;11.74;73.40
79362;BME280;68830;47.566;19.012;2023-04-25T08:31:17;98832.97;;;11.67;73.32
79362;BME280;68830;47.566;19.012;2023-04-25T08:34:19;98827.50;;;11.83;75.95
79362;BME280;68830;47.566;19.012;2023-04-25T08:37:22;98886.09;;;12.18;73.27
79362;BME280;68830;47.566;19.012;2023-04-25T08:40:27;98886.53;;;12.21;72.57
79362;BME280;68830;47.566;19.012;2023-04-25T08:43:34;98901.38;;;12.16;72.11
79362;BME280;68830;47.566;19.012;2023-04-25T08:46:38;98891.59;;;12.02;72.86
79362;BME280;68830;47.566;19.012;2023-04-25T08:49:45;98915.56;;;12.23;73.64
79362;BME280;68830;47.566;19.012;2023-04-25T08:52:50;98910.63;;;12.05;72.10
79362;BME280;68830;47.566;19.012;2023-04-25T08:55:55;98870.47;;;11.93;72.59
79362;BME280;68830;47.566;19.012;2023-04-25T08:58:59;98890.50;;;12.11;72.11
79362;BME280;68830;47.566;19.012;2023-04-25T09:02:02;98853.38;;;12.11;70.59
79362;BME280;68830;47.566;19.012;2023-04-25T09:05:06;98875.72;;;12.38;71.65
79362;BME280;68830;47.566;19.012;2023-04-25T09:08:08;98913.16;;;12.43;71.60
79362;BME280;68830;47.566;19.012;2023-04-25T09:11:10;98880.34;;;12.50;72.08
79362;BME280;68830;47.566;19.012;2023-04-25T09:14:16;98855.31;;;12.23;70.93
79362;BME280;68830;47.566;19.012;2023-04-25T09:17:18;98842.09;;;12.09;69.29
79362;BME280;68830;47.566;19.012;2023-04-25T09:20:20;98849.19;;;12.23;70.42
79362;BME280;68830;47.566;19.012;2023-04-25T09:23:22;98877.34;;;12.39;69.43
79362;BME280;68830;47.566;19.012;2023-04-25T09:26:25;98845.00;;;12.29;69.41
79362;BME280;68830;47.566;19.012;2023-04-25T09:29:33;98876.00;;;12.43;70.76
79362;BME280;68830;47.566;19.012;2023-04-25T09:32:35;98914.94;;;12.72;69.62
79362;BME280;68830;47.566;19.012;2023-04-25T09:35:38;98858.47;;;12.48;68.94
79362;BME280;68830;47.566;19.012;2023-04-25T09:38:42;98882.59;;;12.68;67.59
79362;BME280;68830;47.566;19.012;2023-04-25T09:41:44;98874.69;;;12.96;66.34
79362;BME280;68830;47.566;19.012;2023-04-25T09:44:48;98906.03;;;13.43;65.20
79362;BME280;68830;47.566;19.012;2023-04-25T09:47:55;98841.25;;;13.02;65.63
79362;BME280;68830;47.566;19.012;2023-04-25T09:51:08;98896.06;;;13.52;64.25
79362;BME280;68830;47.566;19.012;2023-04-25T09:54:10;98898.75;;;13.52;62.98
79362;BME280;68830;47.566;19.012;2023-04-25T09:57:14;98897.53;;;13.55;62.53
79362;BME280;68830;47.566;19.012;2023-04-25T10:00:18;98914.09;;;13.57;62.73
79362;BME280;68830;47.566;19.012;2023-04-25T10:03:22;98889.00;;;13.66;63.53
79362;BME280;68830;47.566;19.012;2023-04-25T10:06:28;98898.03;;;13.65;60.62
79362;BME280;68830;47.566;19.012;2023-04-25T10:09:32;98902.06;;;13.61;62.25
79362;BME280;68830;47.566;19.012;2023-04-25T10:12:35;98883.19;;;13.28;62.20
79362;BME280;68830;47.566;19.012;2023-04-25T10:15:40;98880.91;;;13.25;60.65
79362;BME280;68830;47.566;19.012;2023-04-25T10:18:43;98879.47;;;13.22;60.67
79362;BME280;68830;47.566;19.012;2023-04-25T10:21:50;98894.03;;;13.26;60.22
79362;BME280;68830;47.566;19.012;2023-04-25T10:24:53;98841.16;;;12.95;60.89
79362;BME280;68830;47.566;19.012;2023-04-25T10:27:55;98868.44;;;13.25;61.27
79362;BME280;68830;47.566;19.012;2023-04-25T10:30:59;98905.41;;;13.41;60.08
79362;BME280;68830;47.566;19.012;2023-04-25T10:34:01;98870.72;;;13.28;59.88
79362;BME280;68830;47.566;19.012;2023-04-25T10:37:03;98871.97;;;13.11;60.77
79362;BME280;68830;47.566;19.012;2023-04-25T10:40:08;98829.41;;;12.83;59.25
79362;BME280;68830;47.566;19.012;2023-04-25T10:43:33;98899.47;;;13.67;60.78
79362;BME280;68830;47.566;19.012;2023-04-25T10:46:37;98904.28;;;13.85;60.38
79362;BME280;68830;47.566;19.012;2023-04-25T10:49:42;98898.13;;;13.85;59.80
79362;BME280;68830;47.566;19.012;2023-04-25T10:52:44;98842.38;;;13.42;58.09
79362;BME280;68830;47.566;19.012;2023-04-25T10:55:53;98891.78;;;14.20;58.38
79362;BME280;68830;47.566;19.012;2023-04-25T10:59:06;98894.38;;;14.48;56.85
79362;BME280;68830;47.566;19.012;2023-04-25T11:02:12;98907.91;;;14.47;55.60
79362;BME280;68830;47.566;19.012;2023-04-25T11:05:22;98882.34;;;14.59;56.79
79362;BME280;68830;47.566;19.012;2023-04-25T11:08:37;98880.16;;;14.34;55.69
79362;BME280;68830;47.566;19.012;2023-04-25T11:11:53;98864.38;;;13.92;54.73
79362;BME280;68830;47.566;19.012;2023-04-25T11:14:58;98862.53;;;13.92;56.35
79362;BME280;68830;47.566;19.012;2023-04-25T11:18:04;98880.09;;;14.21;53.28
79362;BME280;68830;47.566;19.012;2023-04-25T11:21:06;98913.41;;;14.04;53.66
79362;BME280;68830;47.566;19.012;2023-04-25T11:24:08;98872.38;;;13.92;52.53
79362;BME280;68830;47.566;19.012;2023-04-25T11:27:10;98944.78;;;14.50;53.93
79362;BME280;68830;47.566;19.012;2023-04-25T11:30:14;98897.56;;;14.30;54.93
79362;BME280;68830;47.566;19.012;2023-04-25T11:33:23;98911.69;;;14.31;55.84
79362;BME280;68830;47.566;19.012;2023-04-25T11:36:26;98928.88;;;14.63;53.33
79362;BME280;68830;47.566;19.012;2023-04-25T11:39:29;98887.00;;;14.50;57.00
79362;BME280;68830;47.566;19.012;2023-04-25T11:42:31;98922.50;;;14.23;51.30
79362;BME280;68830;47.566;19.012;2023-04-25T11:45:33;98888.81;;;14.02;55.48
79362;BME280;68830;47.566;19.012;2023-04-25T11:48:40;98894.56;;;14.05;52.79
79362;BME280;68830;47.566;19.012;2023-04-25T11:51:43;98897.84;;;14.07;53.44
79362;BME280;68830;47.566;19.012;2023-04-25T11:54:45;98888.97;;;14.35;52.80
79362;BME280;68830;47.566;19.012;2023-04-25T11:57:48;98904.94;;;14.28;53.51
79362;BME280;68830;47.566;19.012;2023-04-25T12:00:51;98934.22;;;14.28;53.80
79362;BME280;68830;47.566;19.012;2023-04-25T12:03:55;98934.28;;;14.42;53.24
79362;BME280;68830;47.566;19.012;2023-04-25T12:06:57;98969.03;;;14.61;54.61
79362;BME280;68830;47.566;19.012;2023-04-25T12:09:59;98964.72;;;14.60;52.20
79362;BME280;68830;47.566;19.012;2023-04-25T12:13:18;98942.75;;;14.52;52.02
79362;BME280;68830;47.566;19.012;2023-04-25T12:16:20;98951.78;;;15.18;53.46
79362;BME280;68830;47.566;19.012;2023-04-25T12:19:24;98952.19;;;15.22;51.14
79362;BME280;68830;47.566;19.012;2023-04-25T12:22:26;98945.84;;;15.16;49.44
79362;BME280;68830;47.566;19.012;2023-04-25T12:25:35;98959.38;;;15.21;49.02
79362;BME280;68830;47.566;19.012;2023-04-25T12:28:38;98940.91;;;15.20;50.82
79362;BME280;68830;47.566;19.012;2023-04-25T12:31:40;98876.22;;;14.72;51.02
79362;BME280;68830;47.566;19.012;2023-04-25T12:34:43;98931.09;;;15.47;47.60
79362;BME280;68830;47.566;19.012;2023-04-25T12:37:46;98899.47;;;15.37;46.57
79362;BME280;68830;47.566;19.012;2023-04-25T12:40:49;98905.22;;;15.41;48.25
79362;BME280;68830;47.566;19.012;2023-04-25T12:43:51;98892.00;;;16.12;46.31
79362;BME280;68830;47.566;19.012;2023-04-25T12:46:53;98890.03;;;15.81;45.97
79362;BME280;68830;47.566;19.012;2023-04-25T12:49:57;98890.47;;;15.65;45.29
79362;BME280;68830;47.566;19.012;2023-04-25T12:52:59;98867.03;;;15.53;46.59
79362;BME280;68830;47.566;19.012;2023-04-25T12:56:04;98872.53;;;15.92;44.92
79362;BME280;68830;47.566;19.012;2023-04-25T12:59:06;98866.34;;;16.04;47.01
79362;BME280;68830;47.566;19.012;2023-04-25T13:02:08;98897.13;;;16.07;44.08
79362;BME280;68830;47.566;19.012;2023-04-25T13:05:11;98881.00;;;15.82;43.46
79362;BME280;68830;47.566;19.012;2023-04-25T13:08:14;98916.75;;;16.46;42.50
79362;BME280;68830;47.566;19.012;2023-04-25T13:11:16;98862.53;;;15.61;42.64
79362;BME280;68830;47.566;19.012;2023-04-25T13:14:18;98850.34;;;15.91;42.22
79362;BME280;68830;47.566;19.012;2023-04-25T13:17:20;98847.03;;;16.02;42.75
79362;BME280;68830;47.566;19.012;2023-04-25T13:20:23;98901.09;;;16.56;41.97
79362;BME280;68830;47.566;19.012;2023-04-25T13:23:26;98902.47;;;16.65;40.58
79362;BME280;68830;47.566;19.012;2023-04-25T13:26:29;98839.72;;;15.78;41.33
79362;BME280;68830;47.566;19.012;2023-04-25T13:29:31;98864.44;;;16.18;42.03
79362;BME280;68830;47.566;19.012;2023-04-25T13:32:33;98884.31;;;16.80;38.18
79362;BME280;68830;47.566;19.012;2023-04-25T13:35:37;98826.22;;;16.24;38.46
79362;BME280;68830;47.566;19.012;2023-04-25T13:38:39;98867.97;;;16.12;38.99
79362;BME280;68830;47.566;19.012;2023-04-25T13:41:43;98858.34;;;15.98;39.88
79362;BME280;68830;47.566;19.012;2023-04-25T13:44:45;98862.16;;;16.28;38.68
79362;BME280;68830;47.566;19.012;2023-04-25T13:47:47;98899.56;;;16.22;36.80
79362;BME280;68830;47.566;19.012;2023-04-25T13:50:51;98860.47;;;15.43;38.25
79362;BME280;68830;47.566;19.012;2023-04-25T13:53:53;98836.69;;;15.08;37.82
79362;BME280;68830;47.566;19.012;2023-04-25T13:56:55;98877.47;;;15.88;37.97
79362;BME280;68830;47.566;19.012;2023-04-25T14:00:00;98842.81;;;15.62;38.59
79362;BME280;68830;47.566;19.012;2023-04-25T14:03:06;98878.72;;;15.72;39.30
79362;BME280;68830;47.566;19.012;2023-04-25T14:06:12;98908.47;;;16.02;38.73
79362;BME280;68830;47.566;19.012;2023-04-25T14:09:15;98899.91;;;16.38;39.40
79362;BME280;68830;47.566;19.012;2023-04-25T14:12:19;98836.19;;;15.97;38.87
79362;BME280;68830;47.566;19.012;2023-04-25T14:15:22;98894.09;;;15.90;39.81
79362;BME280;68830;47.566;19.012;2023-04-25T14:18:24;98863.84;;;16.16;41.15
79362;BME280;68830;47.566;19.012;2023-04-25T14:21:28;98832.16;;;16.20;40.24
79362;BME280;68830;47.566;19.012;2023-04-25T14:24:30;98830.88;;;16.35;38.82
79362;BME280;68830;47.566;19.012;2023-04-25T14:27:32;98850.59;;;16.34;38.57
79362;BME280;68830;47.566;19.012;2023-04-25T14:30:34;98837.00;;;16.42;39.86
79362;BME280;68830;47.566;19.012;2023-04-25T14:33:36;98879.56;;;16.37;39.22
79362;BME280;68830;47.566;19.012;2023-04-25T14:36:42;98899.34;;;16.30;39.04
79362;BME280;68830;47.566;19.012;2023-04-25T14:39:44;98867.38;;;16.10;39.22
79362;BME280;68830;47.566;19.012;2023-04-25T14:42:47;98857.91;;;16.07;40.31
79362;BME280;68830;47.566;19.012;2023-04-25T14:45:49;98841.50;;;15.97;39.89
79362;BME280;68830;47.566;19.012;2023-04-25T14:48:51;98850.78;;;15.88;40.33
79362;BME280;68830;47.566;19.012;2023-04-25T14:51:54;98829.22;;;15.76;39.78
79362;BME280;68830;47.566;19.012;2023-04-25T14:54:56;98897.22;;;16.38;39.78
79362;BME280;68830;47.566;19.012;2023-04-25T14:57:58;98839.03;;;16.02;40.25
79362;BME280;68830;47.566;19.012;2023-04-25T15:01:00;98872.22;;;16.26;40.53
79362;BME280;68830;47.566;19.012;2023-04-25T15:04:03;98896.97;;;16.53;41.00
79362;BME280;68830;47.566;19.012;2023-04-25T15:07:06;98919.84;;;16.42;41.77
79362;BME280;68830;47.566;19.012;2023-04-25T15:10:09;98839.38;;;16.19;39.56
79362;BME280;68830;47.566;19.012;2023-04-25T15:13:15;98848.53;;;16.36;39.69
79362;BME280;68830;47.566;19.012;2023-04-25T15:16:17;98838.97;;;16.16;40.14
79362;BME280;68830;47.566;19.012;2023-04-25T15:19:20;98916.09;;;16.50;39.67
79362;BME280;68830;47.566;19.012;2023-04-25T15:22:23;98851.22;;;15.78;39.78
79362;BME280;68830;47.566;19.012;2023-04-25T15:25:25;98852.25;;;15.58;41.60
79362;BME280;68830;47.566;19.012;2023-04-25T15:28:30;98895.13;;;15.96;42.03
79362;BME280;68830;47.566;19.012;2023-04-25T15:31:33;98881.84;;;15.63;41.47
79362;BME280;68830;47.566;19.012;2023-04-25T15:34:35;98862.75;;;15.19;42.52
79362;BME280;68830;47.566;19.012;2023-04-25T15:37:38;98886.31;;;15.09;42.78
79362;BME280;68830;47.566;19.012;2023-04-25T15:40:42;98912.81;;;15.17;42.90
79362;BME280;68830;47.566;19.012;2023-04-25T15:43:47;98866.97;;;14.68;43.86
79362;BME280;68830;47.566;19.012;2023-04-25T15:46:50;98863.66;;;14.52;46.36
79362;BME280;68830;47.566;19.012;2023-04-25T15:49:55;98859.13;;;14.05;49.60
79362;BME280;68830;47.566;19.012;2023-04-25T15:52:59;98896.28;;;13.79;51.12
79362;BME280;68830;47.566;19.012;2023-04-25T15:56:01;98869.78;;;13.64;51.96